Bismarck, North Dakota
Current Conditions -  °F | °C
As of 9:52 AM on Wednesday 22 Oct 2014 (Local Time) from KBIS Reporting Station
Broken Clouds Broken Clouds  
Wind Chill: 14°   Ceiling: 11000
Heat Index: 14°   Visibility: 10mi
Dew Point:   Wind: 7mph
Humidity: 64%   Direction: 290°WNW
Pressure: 29.85"   Gusts: NA
Location:  46.81°N, 100.77°W
Report Text: KBIS 221452Z 29006KT 10SM BKN110 14/07 A2985 RMK AO2 SLP107 T01390072 53025
Loading
Personal Weather Stations






























Interactive Weather Map New forecast layout! Learn more

10-Day Weather Forecast

Advertisements
Track Severe Weather on mobile